createdAt,value
2023-05-17T00:01:11.544Z,84.99
2023-05-17T00:04:21.906Z,85.20
2023-05-17T00:07:30.854Z,85.41
2023-05-17T00:10:39.751Z,85.61
2023-05-17T00:13:49.210Z,85.82
2023-05-17T00:16:57.920Z,86.13
2023-05-17T00:20:06.013Z,86.02
2023-05-17T00:23:16.565Z,86.58
2023-05-17T00:26:25.109Z,87.09
2023-05-17T00:29:34.500Z,87.51
2023-05-17T00:32:44.115Z,87.60
2023-05-17T00:35:45.634Z,87.57
2023-05-17T00:38:54.013Z,87.71
2023-05-17T00:42:04.479Z,87.71
2023-05-17T00:45:13.279Z,88.02
2023-05-17T00:48:21.851Z,88.23
2023-05-17T00:51:30.301Z,88.43
2023-05-17T00:54:40.390Z,88.43
2023-05-17T00:57:50.040Z,88.64
2023-05-17T01:00:57.972Z,88.64
2023-05-17T01:04:09.230Z,88.74
2023-05-17T01:07:08.410Z,88.43
2023-05-17T01:10:16.713Z,88.53
2023-05-17T01:13:26.719Z,88.74
2023-05-17T01:16:35.746Z,88.95
2023-05-17T01:19:44.328Z,89.15
2023-05-17T01:22:54.681Z,89.25
2023-05-17T01:26:03.645Z,89.56
2023-05-17T01:29:12.654Z,89.87
2023-05-17T01:32:21.181Z,89.97
2023-05-17T01:35:31.087Z,90.28
2023-05-17T01:38:39.685Z,90.39
2023-05-17T01:41:47.995Z,90.39
2023-05-17T01:44:58.133Z,90.59
2023-05-17T01:48:07.591Z,90.69
2023-05-17T01:51:16.321Z,90.90
2023-05-17T01:54:26.051Z,90.80
2023-05-17T01:57:35.178Z,91.00
2023-05-17T02:00:43.279Z,91.00
2023-05-17T02:03:53.581Z,91.31
2023-05-17T02:07:02.063Z,91.52
2023-05-17T02:10:11.194Z,91.77
2023-05-17T02:13:19.646Z,92.08
2023-05-17T02:16:30.251Z,92.18
2023-05-17T02:19:39.005Z,92.24
2023-05-17T02:22:47.800Z,92.24
2023-05-17T02:25:57.723Z,92.24
2023-05-17T02:29:06.257Z,92.44
2023-05-17T02:32:15.164Z,92.65
2023-05-17T02:35:25.480Z,92.86
2023-05-17T02:38:34.256Z,92.76
2023-05-17T02:41:42.172Z,92.76
2023-05-17T02:44:52.570Z,92.96
2023-05-17T02:48:01.194Z,93.16
2023-05-17T02:51:10.054Z,93.48
2023-05-17T02:54:19.852Z,93.58
2023-05-17T02:57:28.573Z,93.58
2023-05-17T03:00:32.725Z,93.58
2023-05-17T03:03:40.958Z,93.58
2023-05-17T03:06:50.278Z,93.58
2023-05-17T03:09:58.083Z,93.68
2023-05-17T03:13:06.487Z,93.93
2023-05-17T03:16:15.489Z,94.03
2023-05-17T03:19:23.019Z,94.24
2023-05-17T03:22:34.463Z,94.24
2023-05-17T03:25:33.072Z,94.45
2023-05-17T03:28:40.372Z,94.45
2023-05-17T03:31:48.344Z,94.76
2023-05-17T03:34:57.738Z,94.76
2023-05-17T03:38:06.163Z,94.85
2023-05-17T03:41:13.955Z,94.71
2023-05-17T03:44:21.230Z,94.71
2023-05-17T03:47:30.577Z,94.51
2023-05-17T03:50:38.484Z,94.30
2023-05-17T03:53:46.667Z,94.05
2023-05-17T03:56:30.133Z,93.84
2023-05-17T03:59:38.406Z,93.74
2023-05-17T04:02:46.233Z,93.54
2023-05-17T04:05:55.876Z,93.54
2023-05-17T04:09:03.302Z,93.43
2023-05-17T04:12:11.340Z,93.18
2023-05-17T04:15:21.760Z,93.08
2023-05-17T04:18:29.723Z,92.97
2023-05-17T04:21:37.898Z,92.97
2023-05-17T04:24:45.204Z,92.52
2023-05-17T04:27:55.117Z,92.52
2023-05-17T04:31:02.375Z,92.32
2023-05-17T04:34:10.639Z,92.42
2023-05-17T04:37:19.808Z,92.11
2023-05-17T04:40:28.210Z,92.32
2023-05-17T04:43:36.364Z,92.42
2023-05-17T04:46:45.485Z,92.69
2023-05-17T04:49:53.653Z,92.27
2023-05-17T04:53:01.197Z,91.82
2023-05-17T04:56:10.676Z,91.31
2023-05-17T04:59:18.693Z,90.55
2023-05-17T05:02:26.456Z,90.03
2023-05-17T05:05:37.510Z,89.99
2023-05-17T05:08:46.579Z,88.96
2023-05-17T05:11:55.310Z,89.23
2023-05-17T05:15:02.854Z,88.21
2023-05-17T05:18:13.093Z,87.34
2023-05-17T05:21:20.586Z,87.04
2023-05-17T05:24:28.048Z,86.07
2023-05-17T05:27:37.073Z,85.77
2023-05-17T05:30:44.323Z,84.80
2023-05-17T05:33:52.630Z,82.86
2023-05-17T05:37:01.619Z,83.27
2023-05-17T05:40:09.123Z,83.47
2023-05-17T05:43:16.907Z,82.14
2023-05-17T05:46:25.469Z,82.41
2023-05-17T05:49:33.458Z,81.59
2023-05-17T05:52:41.478Z,80.36
2023-05-17T05:55:49.699Z,81.18
2023-05-17T05:58:59.145Z,80.36
2023-05-17T06:02:06.680Z,77.91
2023-05-17T06:05:14.235Z,77.70
2023-05-17T06:08:23.278Z,75.35
2023-05-17T06:11:30.869Z,74.97
2023-05-17T06:14:38.608Z,74.97
2023-05-17T06:17:47.618Z,75.86
2023-05-17T06:20:55.660Z,74.29
2023-05-17T06:24:05.027Z,72.96
2023-05-17T06:27:03.604Z,72.14
2023-05-17T06:30:11.342Z,74.05
2023-05-17T06:33:18.898Z,70.71
2023-05-17T06:36:26.883Z,70.47
2023-05-17T06:39:36.632Z,69.48
2023-05-17T06:42:44.160Z,69.85
2023-05-17T06:45:52.200Z,68.60
2023-05-17T06:49:00.873Z,65.87
2023-05-17T06:52:08.595Z,66.07
2023-05-17T06:55:16.473Z,66.75
2023-05-17T06:58:26.005Z,65.94
2023-05-17T07:01:33.976Z,63.86
2023-05-17T07:04:42.810Z,63.39
2023-05-17T07:07:52.119Z,62.33
2023-05-17T07:10:59.970Z,61.00
2023-05-17T07:14:07.386Z,60.57
2023-05-17T07:17:15.421Z,60.46
2023-05-17T07:20:24.005Z,60.57
2023-05-17T07:23:32.101Z,60.21
2023-05-17T07:26:39.898Z,58.64
2023-05-17T07:29:48.866Z,59.41
2023-05-17T07:32:56.021Z,59.69
2023-05-17T07:36:04.485Z,58.41
2023-05-17T07:39:13.646Z,58.03
2023-05-17T07:42:21.258Z,59.92
2023-05-17T07:45:30.119Z,59.39
2023-05-17T07:48:39.358Z,58.03
2023-05-17T07:51:46.790Z,57.60
2023-05-17T07:54:54.720Z,58.21
2023-05-17T07:58:02.396Z,57.60
2023-05-17T08:01:11.700Z,57.12
2023-05-17T08:04:19.681Z,57.60
2023-05-17T08:07:27.141Z,56.68
2023-05-17T08:10:36.801Z,57.29
2023-05-17T08:13:45.103Z,58.41
2023-05-17T08:16:53.048Z,56.55
2023-05-17T08:20:02.669Z,55.35
2023-05-17T08:23:10.581Z,55.22
2023-05-17T08:26:18.206Z,53.98
2023-05-17T08:29:28.220Z,55.43
2023-05-17T08:32:36.414Z,54.97
2023-05-17T08:35:44.525Z,54.64
2023-05-17T08:38:53.784Z,53.22
2023-05-17T08:42:02.121Z,53.32
2023-05-17T08:45:09.505Z,52.45
2023-05-17T08:48:17.048Z,51.64
2023-05-17T08:51:26.447Z,52.17
2023-05-17T08:54:34.264Z,54.44
2023-05-17T08:57:42.071Z,53.39
2023-05-17T09:00:51.273Z,52.78
2023-05-17T09:03:58.807Z,52.98
2023-05-17T09:07:07.080Z,52.68
2023-05-17T09:10:15.988Z,52.05
2023-05-17T09:13:23.942Z,51.09
2023-05-17T09:16:31.438Z,51.18
2023-05-17T09:19:41.081Z,50.17
2023-05-17T09:22:48.974Z,50.09
2023-05-17T09:25:56.741Z,50.12
2023-05-17T09:29:04.146Z,51.23
2023-05-17T09:32:12.981Z,50.62
2023-05-17T09:35:21.275Z,50.83
2023-05-17T09:38:28.855Z,49.51
2023-05-17T09:41:37.850Z,49.48
2023-05-17T09:44:46.181Z,49.66
2023-05-17T09:47:53.305Z,49.91
2023-05-17T09:51:02.954Z,50.04
2023-05-17T09:54:10.686Z,51.34
2023-05-17T09:57:18.283Z,51.82
2023-05-17T10:00:27.484Z,51.57
2023-05-17T10:03:35.131Z,50.65
2023-05-17T10:06:48.054Z,49.23
2023-05-17T10:09:46.491Z,49.11
2023-05-17T10:12:55.465Z,49.39
2023-05-17T10:16:03.299Z,48.55
2023-05-17T10:19:11.716Z,48.91
2023-05-17T10:22:23.573Z,50.70
2023-05-17T10:25:31.513Z,51.44
2023-05-17T10:28:39.008Z,50.25
2023-05-17T10:31:47.810Z,48.86
2023-05-17T10:35:09.505Z,47.97
2023-05-17T10:38:00.906Z,48.22
2023-05-17T10:41:10.706Z,49.31
2023-05-17T10:44:17.777Z,48.86
2023-05-17T10:47:25.829Z,48.78
2023-05-17T10:50:34.803Z,49.01
2023-05-17T10:53:42.363Z,49.84
2023-05-17T10:56:50.535Z,49.27
2023-05-17T10:59:57.494Z,48.74
2023-05-17T11:03:06.794Z,47.22
2023-05-17T11:06:23.527Z,46.30
2023-05-17T11:09:18.862Z,46.04
2023-05-17T11:12:27.405Z,46.80
2023-05-17T11:15:35.628Z,46.17
2023-05-17T11:18:43.093Z,47.39
2023-05-17T11:21:52.088Z,44.66
2023-05-17T11:24:59.606Z,43.10
2023-05-17T11:28:07.434Z,43.93
2023-05-17T11:31:16.696Z,43.55
2023-05-17T11:34:24.926Z,43.43
2023-05-17T11:37:31.958Z,43.95
2023-05-17T11:40:40.011Z,43.65
2023-05-17T11:43:49.035Z,45.09
2023-05-17T11:46:56.742Z,45.78
2023-05-17T11:50:04.507Z,45.98
2023-05-17T11:53:13.445Z,44.66
2023-05-17T11:56:26.508Z,43.91
2023-05-17T11:59:25.620Z,44.40
2023-05-17T12:04:56.406Z,45.57
2023-05-17T12:08:04.440Z,44.54
2023-05-17T12:11:12.110Z,44.56
2023-05-17T12:14:20.688Z,44.81
2023-05-17T12:17:28.105Z,45.97
2023-05-17T12:20:35.782Z,46.14
2023-05-17T12:23:45.036Z,43.87
2023-05-17T12:26:52.450Z,43.95
2023-05-17T12:29:59.966Z,44.52
2023-05-17T12:33:09.663Z,44.82
2023-05-17T12:36:17.209Z,44.03
2023-05-17T12:39:25.145Z,43.59
2023-05-17T12:42:33.732Z,44.27
2023-05-17T12:45:41.070Z,45.29
2023-05-17T12:48:50.028Z,45.31
2023-05-17T12:51:59.140Z,44.42
2023-05-17T12:55:05.971Z,45.20
2023-05-17T12:58:13.766Z,43.69
2023-05-17T13:01:23.112Z,44.72
2023-05-17T13:04:32.460Z,44.12
2023-05-17T13:07:40.542Z,44.32
2023-05-17T13:10:47.449Z,44.72
2023-05-17T13:13:57.591Z,43.51
2023-05-17T13:17:04.935Z,44.29
2023-05-17T13:20:12.755Z,43.04
2023-05-17T13:23:21.499Z,44.86
2023-05-17T13:26:29.439Z,44.31
2023-05-17T13:29:40.247Z,42.15
2023-05-17T13:32:39.046Z,43.93
2023-05-17T13:35:46.426Z,44.03
2023-05-17T13:38:54.787Z,45.23
2023-05-17T13:42:02.564Z,44.12
2023-05-17T13:45:12.994Z,43.91
2023-05-17T13:48:20.543Z,45.43
2023-05-17T13:51:28.067Z,44.52
2023-05-17T13:54:37.665Z,44.42
2023-05-17T13:57:45.527Z,44.52
2023-05-17T14:00:53.275Z,45.37
2023-05-17T14:04:02.095Z,44.74
2023-05-17T14:07:09.441Z,43.85
2023-05-17T14:10:17.339Z,43.24
2023-05-17T14:13:25.838Z,43.37
2023-05-17T14:16:34.164Z,41.93
2023-05-17T14:19:41.282Z,43.06
2023-05-17T14:22:48.936Z,42.74
2023-05-17T14:25:57.948Z,42.23
2023-05-17T14:29:05.706Z,43.57
2023-05-17T14:32:13.819Z,43.44
2023-05-17T14:35:22.962Z,43.75
2023-05-17T14:38:31.342Z,43.65
2023-05-17T14:41:39.537Z,43.04
2023-05-17T14:44:51.146Z,43.77
2023-05-17T14:47:59.350Z,42.32
2023-05-17T14:51:08.034Z,41.73
2023-05-17T14:54:18.328Z,42.15
2023-05-17T14:57:26.549Z,42.55
2023-05-17T15:00:34.900Z,42.84
2023-05-17T15:03:44.633Z,43.10
2023-05-17T15:06:54.022Z,42.41
2023-05-17T15:10:02.461Z,43.43
2023-05-17T15:13:11.326Z,42.01
2023-05-17T15:16:10.705Z,43.65
2023-05-17T15:19:19.316Z,44.86
2023-05-17T15:22:27.083Z,42.66
2023-05-17T15:25:28.058Z,43.75
2023-05-17T15:28:36.348Z,43.44
2023-05-17T15:31:44.604Z,43.93
2023-05-17T15:34:54.755Z,43.65
2023-05-17T15:38:03.367Z,44.17
2023-05-17T15:41:12.155Z,44.48
2023-05-17T15:44:23.157Z,43.75
2023-05-17T15:47:42.630Z,42.54
2023-05-17T15:50:37.178Z,42.74
2023-05-17T15:53:37.303Z,42.84
2023-05-17T15:56:47.544Z,44.07
2023-05-17T15:59:56.279Z,43.38
2023-05-17T16:03:05.049Z,44.60
2023-05-17T16:06:15.420Z,44.49
2023-05-17T16:09:23.403Z,44.68
2023-05-17T16:12:33.285Z,44.58
2023-05-17T16:15:43.334Z,44.27
2023-05-17T16:18:52.025Z,45.63
2023-05-17T16:22:00.461Z,45.45
2023-05-17T16:25:10.787Z,45.78
2023-05-17T16:28:19.114Z,46.43
2023-05-17T16:31:27.628Z,46.33
2023-05-17T16:34:35.916Z,47.06
2023-05-17T16:37:46.608Z,47.18
2023-05-17T16:40:54.900Z,47.79
2023-05-17T16:44:03.373Z,46.63
2023-05-17T16:47:13.361Z,46.00
2023-05-17T16:50:22.074Z,45.50
2023-05-17T16:53:30.382Z,46.02
2023-05-17T16:56:40.661Z,46.25
2023-05-17T16:59:48.819Z,46.95
2023-05-17T17:03:35.389Z,47.06
2023-05-17T17:06:45.668Z,47.87
2023-05-17T17:09:55.056Z,47.89
2023-05-17T17:13:04.382Z,48.72
2023-05-17T17:16:14.622Z,48.87
2023-05-17T17:19:23.285Z,49.51
2023-05-17T17:22:32.281Z,50.01
2023-05-17T17:25:40.871Z,50.42
2023-05-17T17:28:51.000Z,49.91
2023-05-17T17:31:59.891Z,50.22
2023-05-17T17:35:08.723Z,50.01
2023-05-17T17:38:18.930Z,49.94
2023-05-17T17:41:27.204Z,49.84
2023-05-17T17:44:36.035Z,49.94
2023-05-17T17:47:45.696Z,49.94
2023-05-17T17:50:54.794Z,50.57
2023-05-17T17:54:03.117Z,50.26
2023-05-17T17:57:13.842Z,50.67
2023-05-17T18:00:22.300Z,51.08
2023-05-17T18:03:30.631Z,51.61
2023-05-17T18:06:40.564Z,52.33
2023-05-17T18:09:48.865Z,52.25
2023-05-17T18:12:56.647Z,52.86
2023-05-17T18:16:05.440Z,52.96
2023-05-17T18:19:16.093Z,52.86
2023-05-17T18:22:24.982Z,53.19
2023-05-17T18:25:34.488Z,54.11
2023-05-17T18:28:43.845Z,54.31
2023-05-17T18:31:52.219Z,54.64
2023-05-17T18:35:00.869Z,54.46
2023-05-17T18:38:10.190Z,54.77
2023-05-17T18:41:19.555Z,55.18
2023-05-17T18:44:28.242Z,54.90
2023-05-17T18:47:38.368Z,55.74
2023-05-17T18:50:48.233Z,56.04
2023-05-17T18:53:57.056Z,56.25
2023-05-17T18:57:05.651Z,56.27
2023-05-17T19:00:16.074Z,56.68
2023-05-17T19:03:24.380Z,56.92
2023-05-17T19:06:32.822Z,57.22
2023-05-17T19:09:42.586Z,57.63
2023-05-17T19:12:50.951Z,58.14
2023-05-17T19:15:59.555Z,58.58
2023-05-17T19:18:59.106Z,58.58
2023-05-17T19:22:07.870Z,59.19
2023-05-17T19:25:17.163Z,59.30
2023-05-17T19:28:18.390Z,59.39
2023-05-17T19:31:26.965Z,59.73
2023-05-17T19:34:35.575Z,59.63
2023-05-17T19:37:45.021Z,59.83
2023-05-17T19:40:54.794Z,60.58
2023-05-17T19:44:02.948Z,60.58
2023-05-17T19:47:11.278Z,61.50
2023-05-17T19:50:21.138Z,61.22
2023-05-17T19:53:40.302Z,61.73
2023-05-17T19:56:34.914Z,61.83
2023-05-17T19:59:45.152Z,62.37
2023-05-17T20:02:54.434Z,62.48
2023-05-17T20:06:02.763Z,62.58
2023-05-17T20:09:12.807Z,62.88
2023-05-17T20:12:21.971Z,63.84
2023-05-17T20:15:30.842Z,63.53
2023-05-17T20:18:42.435Z,63.53
2023-05-17T20:21:51.648Z,63.84
2023-05-17T20:25:00.044Z,64.79
2023-05-17T20:28:08.241Z,64.89
2023-05-17T20:31:18.161Z,65.41
2023-05-17T20:34:27.723Z,65.84
2023-05-17T20:37:36.126Z,65.74
2023-05-17T20:40:46.389Z,66.16
2023-05-17T20:43:55.352Z,67.08
2023-05-17T20:47:03.738Z,66.60
2023-05-17T20:50:14.277Z,67.32
2023-05-17T20:53:23.512Z,68.68
2023-05-17T20:56:31.993Z,70.01
2023-05-17T20:59:42.055Z,68.88
2023-05-17T21:02:51.015Z,70.15
2023-05-17T21:05:59.495Z,69.12
2023-05-17T21:09:07.693Z,69.53
2023-05-17T21:12:17.584Z,69.26
2023-05-17T21:15:26.436Z,69.77
2023-05-17T21:18:34.963Z,70.49
2023-05-17T21:21:44.820Z,70.21
2023-05-17T21:24:54.201Z,70.94
2023-05-17T21:28:02.945Z,71.04
2023-05-17T21:31:14.112Z,71.24
2023-05-17T21:34:22.514Z,71.34
2023-05-17T21:37:31.104Z,74.05
2023-05-17T21:40:32.657Z,73.57
2023-05-17T21:43:41.375Z,74.50
2023-05-17T21:46:50.471Z,73.57
2023-05-17T21:49:58.880Z,75.87
2023-05-17T21:53:09.324Z,75.05
2023-05-17T21:56:17.731Z,76.39
2023-05-17T21:59:26.295Z,76.79
2023-05-17T22:02:36.848Z,77.55
2023-05-17T22:05:44.953Z,79.14
2023-05-17T22:08:53.766Z,79.24
2023-05-17T22:12:04.305Z,79.55
2023-05-17T22:15:12.957Z,79.48
2023-05-17T22:18:22.376Z,80.76
2023-05-17T22:21:32.335Z,81.27
2023-05-17T22:24:41.012Z,81.17
2023-05-17T22:27:50.105Z,81.10
2023-05-17T22:31:00.460Z,81.21
2023-05-17T22:34:08.982Z,81.10
2023-05-17T22:37:18.097Z,81.21
2023-05-17T22:40:26.940Z,81.21
2023-05-17T22:43:37.306Z,82.48
2023-05-17T22:46:46.837Z,83.00
2023-05-17T22:49:55.318Z,83.04
2023-05-17T22:53:05.551Z,83.25
2023-05-17T22:56:14.768Z,83.25
2023-05-17T22:59:23.987Z,83.34
2023-05-17T23:02:33.875Z,83.34
2023-05-17T23:05:43.180Z,84.17
2023-05-17T23:08:53.046Z,84.48
2023-05-17T23:12:02.858Z,84.23
2023-05-17T23:15:10.817Z,83.86
2023-05-17T23:18:19.688Z,83.76
2023-05-17T23:21:28.106Z,84.63
2023-05-17T23:24:38.493Z,85.45
2023-05-17T23:27:47.364Z,84.79
2023-05-17T23:30:55.772Z,84.17
2023-05-17T23:33:55.782Z,83.76
2023-05-17T23:37:04.030Z,83.34
2023-05-17T23:40:13.302Z,83.28
2023-05-17T23:43:23.239Z,83.07
2023-05-17T23:46:31.331Z,82.97
2023-05-17T23:49:40.346Z,83.49
2023-05-17T23:52:50.407Z,83.59
2023-05-17T23:55:59.278Z,83.49
2023-05-17T23:59:08.183Z,83.73
